Norwegian Crown — C6II4 — position and weather

sailwx.info

Track history (hours):
 
Tides and Currents Weather Stations Pressure Air Temp Water Temp Dewpoint Dewpoint Depression Visibility Wind Speed Wind Dir Waves Ship Positions

Norwegian Crown

Operator: Norwegian Cruise Line

Last reported at 2014-Jul-28 07:31 UTC. Time now 2014-Jul-28 18:26 UTC.
Position N 52°55' E 002°40'.

Type: Passenger vessel. MMSI: 308785000.

Date/timePositionNaut miles runAvg speedWind from/ knotsBaromVisibWave heightAir tempDewpointWater temp
2014-Jul-28 07:31N 52°55' E 002°40'1815.5
2014-Jul-28 06:24N 52°37' E 002°40'1416.7
2014-Jul-28 05:33N 52°23' E 002°40'1817.4
2014-Jul-28 04:30N 52°05' E 002°39'1617.4
2014-Jul-28 03:33N 51°48' E 002°37'1817.9
2014-Jul-28 02:33N 51°35' E 002°18'1818.1
2014-Jul-28 01:33N 51°21' E 001°59'1918.9
2014-Jul-28 00:33N 51°06' E 001°40'1919.1
2014-Jul-27 23:33N 50°51' E 001°23'1717.2
2014-Jul-27 22:33N 50°37' E 001°07'1817.6
2014-Jul-27 21:33N 50°29' E 000°42'2418.8
2014-Jul-27 20:17N 50°23' E 000°06'1317.9
2014-Jul-27 19:33N 50°24' W 000°15'1817.9
2014-Jul-27 18:34N 50°32' W 000°40'1616.5
2014-Jul-27 17:33N 50°43' W 000°59'1313.1
2014-Jul-27 16:34N 50°49' W 001°17'8 7.8
2014-Jul-27 15:33N 50°54' W 001°26'0 0.2
2014-Jul-27 14:33N 50°54' W 001°26'0 0.0
2014-Jul-27 13:33N 50°54' W 001°26'0 0.0
2014-Jul-27 12:33N 50°54' W 001°26'0 0.0
2014-Jul-27 11:33N 50°54' W 001°26'0 0.0
2014-Jul-27 10:33N 50°54' W 001°26'0 0.0
2014-Jul-27 09:33N 50°54' W 001°26'0 0.0
2014-Jul-27 08:33N 50°54' W 001°26'0 0.0
2014-Jul-27 07:33N 50°54' W 001°26'0 0.0
2014-Jul-27 06:33N 50°54' W 001°26'0 0.0
2014-Jul-27 05:33N 50°54' W 001°26'5 4.8
2014-Jul-27 04:33N 50°51' W 001°20'1010.4
2014-Jul-27 03:34N 50°45' W 001°07'10 9.9
2014-Jul-27 02:34N 50°37' W 000°59'7 7.0
2014-Jul-27 01:34N 50°30' W 001°04'7 6.7
2014-Jul-27 00:34N 50°25' W 001°10'6 5.6
2014-Jul-26 23:33N 50°21' W 001°15'8 7.9
2014-Jul-26 22:33N 50°14' W 001°23'1310.2
2014-Jul-26 21:19N 50°05' W 001°37'1012.5
2014-Jul-26 20:33N 49°58' W 001°46'92 4.8
2014-Jul-26 01:24N 49°09' W 003°46'1416.1
2014-Jul-26 00:33N 49°05' W 004°06'1615.7
2014-Jul-25 23:33N 48°58' W 004°27'1515.3
2014-Jul-25 22:33N 48°49' W 004°47'1515.0
2014-Jul-25 21:33N 48°41' W 005°06'1514.9
2014-Jul-25 20:33N 48°32' W 005°24'1313.3
2014-Jul-25 19:33N 48°19' W 005°24'1010.1
2014-Jul-25 18:33N 48°09' W 005°25'1110.2
2014-Jul-25 17:28N 47°58' W 005°26'1010.4
2014-Jul-25 16:33N 47°48' W 005°26'240 9.9
2014-Jul-24 16:21N 43°48' W 005°40'1011.8
2014-Jul-24 15:31N 43°38' W 005°40'4 0.3
2014-Jul-24 05:26N 43°35' W 005°41'6 6.3
2014-Jul-24 04:27N 43°36' W 005°32'60 9.6
2014-Jul-23 22:13N 43°44' W 004°11'6 9.8
2014-Jul-23 21:33N 43°44' W 004°02'10 9.8
2014-Jul-23 20:33N 43°46' W 003°48'10 9.7
2014-Jul-23 19:33N 43°47' W 003°35'1010.5
2014-Jul-23 18:33N 43°39' W 003°25'1010.4
2014-Jul-23 17:33N 43°31' W 003°15'1110.6
2014-Jul-23 16:33N 43°23' W 003°06'4 4.2
2014-Jul-23 15:32N 43°20' W 003°01'0 0.0
2014-Jul-23 14:32N 43°20' W 003°01'0 0.0
2014-Jul-23 13:32N 43°20' W 003°01'0 0.0
2014-Jul-23 12:20N 43°20' W 003°01'95 6.3
2014-Jul-22 21:22N 44°51' W 002°25'1417.3
2014-Jul-22 20:33N 45°05' W 002°18'1717.0
2014-Jul-22 19:33N 45°21' W 002°10'1717.2
2014-Jul-22 18:33N 45°37' W 002°02'1817.6
2014-Jul-22 17:33N 45°54' W 001°54'1717.0
2014-Jul-22 16:33N 46°08' W 001°41'1615.7
2014-Jul-22 15:33N 46°06' W 001°18'4 4.4
2014-Jul-22 14:32N 46°10' W 001°14'0 0.0
2014-Jul-22 13:32N 46°10' W 001°14'0 0.0
2014-Jul-22 12:32N 46°10' W 001°14'0 0.0
2014-Jul-22 09:29N 46°10' W 001°14'0 0.0
2014-Jul-22 07:08N 46°10' W 001°14'0 0.0
2014-Jul-22 06:32N 46°10' W 001°14'0 0.3
2014-Jul-22 05:33N 46°09' W 001°14'7 7.3
2014-Jul-22 04:33N 46°07' W 001°24'1110.6
2014-Jul-22 03:33N 46°08' W 001°39'1010.2
2014-Jul-22 02:33N 46°13' W 001°52'1110.8
2014-Jul-22 01:33N 46°19' W 002°05'1210.6
2014-Jul-22 00:26N 46°26' W 002°19'2110.8
2014-Jul-21 22:27N 46°39' W 002°44'2311.0
2014-Jul-21 20:22N 46°52' W 003°11'111.2
2014-Jul-21 20:18N 46°52' W 003°12'811.2
2014-Jul-21 19:33N 46°57' W 003°22'1111.1
2014-Jul-21 18:33N 47°04' W 003°35'6811.3
2014-Jul-21 12:31N 47°44' W 004°57'3311.2
2014-Jul-21 09:33N 48°12' W 005°23'18314.0
2014-Jul-20 20:33N 50°15' W 001°57'1818.4
2014-Jul-20 19:33N 50°23' W 001°31'1817.8
2014-Jul-20 18:33N 50°31' W 001°06'1212.2
2014-Jul-20 17:33N 50°43' W 001°02'1312.5
2014-Jul-20 16:33N 50°50' W 001°19'7 6.5
2014-Jul-20 15:33N 50°54' W 001°26'0 0.0
2014-Jul-20 14:33N 50°54' W 001°26'0 0.0
2014-Jul-20 13:33N 50°54' W 001°26'0 0.0
2014-Jul-20 12:27N 50°54' W 001°26'0 0.0
2014-Jul-20 11:27N 50°54' W 001°26'0 0.0
2014-Jul-20 10:30N 50°54' W 001°26'0 0.0
2014-Jul-20 09:31N 50°54' W 001°26'0 0.0
2014-Jul-20 08:33N 50°54' W 001°26'0 0.0
2014-Jul-20 07:33N 50°54' W 001°26'0 0.0
2014-Jul-20 06:33N 50°54' W 001°26'0 0.0
2014-Jul-20 05:30N 50°54' W 001°26'5 5.6
2014-Jul-20 04:34N 50°51' W 001°20'1111.0
2014-Jul-20 03:33N 50°45' W 001°05'1211.7
2014-Jul-20 02:33N 50°38' W 000°50'1212.0
2014-Jul-20 01:33N 50°34' W 000°32'1413.5
2014-Jul-20 00:33N 50°33' W 000°11'1515.7
2014-Jul-19 23:34N 50°35' E 000°13'1515.1
2014-Jul-19 22:34N 50°39' E 000°36'1514.9
2014-Jul-19 21:34N 50°48' E 000°55'1414.1
2014-Jul-19 20:33N 50°56' E 001°13'1515.2
2014-Jul-19 19:33N 51°05' E 001°32'1414.0
2014-Jul-19 18:33N 51°16' E 001°47'1514.8
2014-Jul-19 17:33N 51°29' E 001°56'1615.9
2014-Jul-19 16:33N 51°41' E 002°14'1916.9
2014-Jul-19 15:27N 51°55' E 002°34'2117.8
2014-Jul-19 14:17N 52°16' E 002°36'1318.1
2014-Jul-19 13:33N 52°29' E 002°38'1818.1
2014-Jul-19 12:33N 52°47' E 002°38'1817.7
2014-Jul-19 11:33N 53°05' E 002°38'1716.7
2014-Jul-19 10:33N 53°20' E 002°48'3316.5
2014-Jul-19 08:32N 53°51' E 003°10'1716.1
2014-Jul-19 07:28N 54°08' E 003°15'26716.7
2014-Jul-18 15:32N 58°28' E 005°00'1717.1
2014-Jul-18 14:33N 58°44' E 005°09'1717.4
2014-Jul-18 13:33N 59°01' E 005°18'1010.0
2014-Jul-18 12:34N 59°02' E 005°37'5 4.8
2014-Jul-18 11:33N 58°58' E 005°44'0 0.0
2014-Jul-18 10:33N 58°58' E 005°44'0 0.0
2014-Jul-18 09:33N 58°58' E 005°44'0 0.0
2014-Jul-18 08:33N 58°58' E 005°44'0 0.0
2014-Jul-18 07:33N 58°58' E 005°44'  
Track history (hours):
 
Tides and Currents Weather Stations Pressure Air Temp Water Temp Dewpoint Dewpoint Depression Visibility Wind Speed Wind Dir Waves Ship Positions

Norwegian Crown

Operator: Norwegian Cruise Line

Last reported at 2014-Jul-28 07:31 UTC. Time now 2014-Jul-28 18:26 UTC.
Position N 52°55' E 002°40'.

Type: Passenger vessel. MMSI: 308785000.

Date/timePositionNaut miles runAvg speedWind from/ knotsBaromVisibWave heightAir tempDewpointWater temp
2014-Jul-28 07:31N 52°55' E 002°40'1815.5
2014-Jul-28 06:24N 52°37' E 002°40'1416.7
2014-Jul-28 05:33N 52°23' E 002°40'1817.4
2014-Jul-28 04:30N 52°05' E 002°39'1617.4
2014-Jul-28 03:33N 51°48' E 002°37'1817.9
2014-Jul-28 02:33N 51°35' E 002°18'1818.1
2014-Jul-28 01:33N 51°21' E 001°59'1918.9
2014-Jul-28 00:33N 51°06' E 001°40'1919.1
2014-Jul-27 23:33N 50°51' E 001°23'1717.2
2014-Jul-27 22:33N 50°37' E 001°07'1817.6
2014-Jul-27 21:33N 50°29' E 000°42'2418.8
2014-Jul-27 20:17N 50°23' E 000°06'1317.9
2014-Jul-27 19:33N 50°24' W 000°15'1817.9
2014-Jul-27 18:34N 50°32' W 000°40'1616.5
2014-Jul-27 17:33N 50°43' W 000°59'1313.1
2014-Jul-27 16:34N 50°49' W 001°17'8 7.8
2014-Jul-27 15:33N 50°54' W 001°26'0 0.2
2014-Jul-27 14:33N 50°54' W 001°26'0 0.0
2014-Jul-27 13:33N 50°54' W 001°26'0 0.0
2014-Jul-27 12:33N 50°54' W 001°26'0 0.0
2014-Jul-27 11:33N 50°54' W 001°26'0 0.0
2014-Jul-27 10:33N 50°54' W 001°26'0 0.0
2014-Jul-27 09:33N 50°54' W 001°26'0 0.0
2014-Jul-27 08:33N 50°54' W 001°26'0 0.0
2014-Jul-27 07:33N 50°54' W 001°26'0 0.0
2014-Jul-27 06:33N 50°54' W 001°26'0 0.0
2014-Jul-27 05:33N 50°54' W 001°26'5 4.8
2014-Jul-27 04:33N 50°51' W 001°20'1010.4
2014-Jul-27 03:34N 50°45' W 001°07'10 9.9
2014-Jul-27 02:34N 50°37' W 000°59'7 7.0
2014-Jul-27 01:34N 50°30' W 001°04'7 6.7
2014-Jul-27 00:34N 50°25' W 001°10'6 5.6
2014-Jul-26 23:33N 50°21' W 001°15'8 7.9
2014-Jul-26 22:33N 50°14' W 001°23'1310.2
2014-Jul-26 21:19N 50°05' W 001°37'1012.5
2014-Jul-26 20:33N 49°58' W 001°46'92 4.8
2014-Jul-26 01:24N 49°09' W 003°46'1416.1
2014-Jul-26 00:33N 49°05' W 004°06'1615.7
2014-Jul-25 23:33N 48°58' W 004°27'1515.3
2014-Jul-25 22:33N 48°49' W 004°47'1515.0
2014-Jul-25 21:33N 48°41' W 005°06'1514.9
2014-Jul-25 20:33N 48°32' W 005°24'1313.3
2014-Jul-25 19:33N 48°19' W 005°24'1010.1
2014-Jul-25 18:33N 48°09' W 005°25'1110.2
2014-Jul-25 17:28N 47°58' W 005°26'1010.4
2014-Jul-25 16:33N 47°48' W 005°26'240 9.9
2014-Jul-24 16:21N 43°48' W 005°40'1011.8
2014-Jul-24 15:31N 43°38' W 005°40'4 0.3
2014-Jul-24 05:26N 43°35' W 005°41'6 6.3
2014-Jul-24 04:27N 43°36' W 005°32'60 9.6
2014-Jul-23 22:13N 43°44' W 004°11'6 9.8
2014-Jul-23 21:33N 43°44' W 004°02'10 9.8
2014-Jul-23 20:33N 43°46' W 003°48'10 9.7
2014-Jul-23 19:33N 43°47' W 003°35'1010.5
2014-Jul-23 18:33N 43°39' W 003°25'1010.4
2014-Jul-23 17:33N 43°31' W 003°15'1110.6
2014-Jul-23 16:33N 43°23' W 003°06'4 4.2
2014-Jul-23 15:32N 43°20' W 003°01'0 0.0
2014-Jul-23 14:32N 43°20' W 003°01'0 0.0
2014-Jul-23 13:32N 43°20' W 003°01'0 0.0
2014-Jul-23 12:20N 43°20' W 003°01'95 6.3
2014-Jul-22 21:22N 44°51' W 002°25'1417.3
2014-Jul-22 20:33N 45°05' W 002°18'1717.0
2014-Jul-22 19:33N 45°21' W 002°10'1717.2
2014-Jul-22 18:33N 45°37' W 002°02'1817.6
2014-Jul-22 17:33N 45°54' W 001°54'1717.0
2014-Jul-22 16:33N 46°08' W 001°41'1615.7
2014-Jul-22 15:33N 46°06' W 001°18'4 4.4
2014-Jul-22 14:32N 46°10' W 001°14'0 0.0
2014-Jul-22 13:32N 46°10' W 001°14'0 0.0
2014-Jul-22 12:32N 46°10' W 001°14'0 0.0
2014-Jul-22 09:29N 46°10' W 001°14'0 0.0
2014-Jul-22 07:08N 46°10' W 001°14'0 0.0
2014-Jul-22 06:32N 46°10' W 001°14'0 0.3
2014-Jul-22 05:33N 46°09' W 001°14'7 7.3
2014-Jul-22 04:33N 46°07' W 001°24'1110.6
2014-Jul-22 03:33N 46°08' W 001°39'1010.2
2014-Jul-22 02:33N 46°13' W 001°52'1110.8
2014-Jul-22 01:33N 46°19' W 002°05'1210.6
2014-Jul-22 00:26N 46°26' W 002°19'2110.8
2014-Jul-21 22:27N 46°39' W 002°44'2311.0
2014-Jul-21 20:22N 46°52' W 003°11'111.2
2014-Jul-21 20:18N 46°52' W 003°12'811.2
2014-Jul-21 19:33N 46°57' W 003°22'1111.1
2014-Jul-21 18:33N 47°04' W 003°35'6811.3
2014-Jul-21 12:31N 47°44' W 004°57'3311.2
2014-Jul-21 09:33N 48°12' W 005°23'18314.0
2014-Jul-20 20:33N 50°15' W 001°57'1818.4
2014-Jul-20 19:33N 50°23' W 001°31'1817.8
2014-Jul-20 18:33N 50°31' W 001°06'1212.2
2014-Jul-20 17:33N 50°43' W 001°02'1312.5
2014-Jul-20 16:33N 50°50' W 001°19'7 6.5
2014-Jul-20 15:33N 50°54' W 001°26'0 0.0
2014-Jul-20 14:33N 50°54' W 001°26'0 0.0
2014-Jul-20 13:33N 50°54' W 001°26'0 0.0
2014-Jul-20 12:27N 50°54' W 001°26'0 0.0
2014-Jul-20 11:27N 50°54' W 001°26'0 0.0
2014-Jul-20 10:30N 50°54' W 001°26'0 0.0
2014-Jul-20 09:31N 50°54' W 001°26'0 0.0
2014-Jul-20 08:33N 50°54' W 001°26'0 0.0
2014-Jul-20 07:33N 50°54' W 001°26'0 0.0
2014-Jul-20 06:33N 50°54' W 001°26'0 0.0
2014-Jul-20 05:30N 50°54' W 001°26'5 5.6
2014-Jul-20 04:34N 50°51' W 001°20'1111.0
2014-Jul-20 03:33N 50°45' W 001°05'1211.7
2014-Jul-20 02:33N 50°38' W 000°50'1212.0
2014-Jul-20 01:33N 50°34' W 000°32'1413.5
2014-Jul-20 00:33N 50°33' W 000°11'1515.7
2014-Jul-19 23:34N 50°35' E 000°13'1515.1
2014-Jul-19 22:34N 50°39' E 000°36'1514.9
2014-Jul-19 21:34N 50°48' E 000°55'1414.1
2014-Jul-19 20:33N 50°56' E 001°13'1515.2
2014-Jul-19 19:33N 51°05' E 001°32'1414.0
2014-Jul-19 18:33N 51°16' E 001°47'1514.8
2014-Jul-19 17:33N 51°29' E 001°56'1615.9
2014-Jul-19 16:33N 51°41' E 002°14'1916.9
2014-Jul-19 15:27N 51°55' E 002°34'2117.8
2014-Jul-19 14:17N 52°16' E 002°36'1318.1
2014-Jul-19 13:33N 52°29' E 002°38'1818.1
2014-Jul-19 12:33N 52°47' E 002°38'1817.7
2014-Jul-19 11:33N 53°05' E 002°38'1716.7
2014-Jul-19 10:33N 53°20' E 002°48'3316.5
2014-Jul-19 08:32N 53°51' E 003°10'1716.1
2014-Jul-19 07:28N 54°08' E 003°15'26716.7
2014-Jul-18 15:32N 58°28' E 005°00'1717.1
2014-Jul-18 14:33N 58°44' E 005°09'1717.4
2014-Jul-18 13:33N 59°01' E 005°18'1010.0
2014-Jul-18 12:34N 59°02' E 005°37'5 4.8
2014-Jul-18 11:33N 58°58' E 005°44'0 0.0
2014-Jul-18 10:33N 58°58' E 005°44'0 0.0
2014-Jul-18 09:33N 58°58' E 005°44'0 0.0
2014-Jul-18 08:33N 58°58' E 005°44'0 0.0
2014-Jul-18 07:33N 58°58' E 005°44'  

Dump ship's entire track history